sensor_id;sensor_type;location;lat;lon;timestamp;temperature;humidity
59572;DHT22;59406;45.602;11.904;2022-08-14T00:02:04;20.50;69.70
59572;DHT22;59406;45.602;11.904;2022-08-14T00:04:32;20.50;69.70
59572;DHT22;59406;45.602;11.904;2022-08-14T00:06:58;20.50;69.60
59572;DHT22;59406;45.602;11.904;2022-08-14T00:09:24;20.50;69.70
59572;DHT22;59406;45.602;11.904;2022-08-14T00:11:50;20.50;69.80
59572;DHT22;59406;45.602;11.904;2022-08-14T00:14:17;20.50;69.50
59572;DHT22;59406;45.602;11.904;2022-08-14T00:16:43;20.50;69.40
59572;DHT22;59406;45.602;11.904;2022-08-14T00:19:09;20.50;69.50
59572;DHT22;59406;45.602;11.904;2022-08-14T00:21:35;20.50;69.40
59572;DHT22;59406;45.602;11.904;2022-08-14T00:24:02;20.50;69.30
59572;DHT22;59406;45.602;11.904;2022-08-14T00:26:29;20.50;69.40
59572;DHT22;59406;45.602;11.904;2022-08-14T00:28:55;20.50;69.60
59572;DHT22;59406;45.602;11.904;2022-08-14T00:31:22;20.40;69.70
59572;DHT22;59406;45.602;11.904;2022-08-14T00:33:48;20.30;69.60
59572;DHT22;59406;45.602;11.904;2022-08-14T00:36:15;20.20;69.70
59572;DHT22;59406;45.602;11.904;2022-08-14T00:38:41;20.30;69.80
59572;DHT22;59406;45.602;11.904;2022-08-14T00:41:07;20.20;70.00
59572;DHT22;59406;45.602;11.904;2022-08-14T00:43:35;20.20;70.40
59572;DHT22;59406;45.602;11.904;2022-08-14T00:46:08;20.20;70.20
59572;DHT22;59406;45.602;11.904;2022-08-14T00:48:35;20.20;70.40
59572;DHT22;59406;45.602;11.904;2022-08-14T00:51:05;20.20;70.50
59572;DHT22;59406;45.602;11.904;2022-08-14T00:53:31;20.10;70.70
59572;DHT22;59406;45.602;11.904;2022-08-14T00:55:57;20.10;70.10
59572;DHT22;59406;45.602;11.904;2022-08-14T00:58:23;20.00;70.80
59572;DHT22;59406;45.602;11.904;2022-08-14T01:00:57;20.10;70.50
59572;DHT22;59406;45.602;11.904;2022-08-14T01:03:25;20.10;70.50
59572;DHT22;59406;45.602;11.904;2022-08-14T01:05:54;20.10;70.30
59572;DHT22;59406;45.602;11.904;2022-08-14T01:08:27;20.10;70.50
59572;DHT22;59406;45.602;11.904;2022-08-14T01:10:54;20.00;70.90
59572;DHT22;59406;45.602;11.904;2022-08-14T01:13:25;19.90;70.70
59572;DHT22;59406;45.602;11.904;2022-08-14T01:15:56;19.90;70.60
59572;DHT22;59406;45.602;11.904;2022-08-14T01:18:25;19.90;71.30
59572;DHT22;59406;45.602;11.904;2022-08-14T01:21:10;19.90;71.10
59572;DHT22;59406;45.602;11.904;2022-08-14T01:23:43;19.80;70.90
59572;DHT22;59406;45.602;11.904;2022-08-14T01:26:11;19.80;71.10
59572;DHT22;59406;45.602;11.904;2022-08-14T01:28:38;19.80;71.00
59572;DHT22;59406;45.602;11.904;2022-08-14T01:31:11;19.70;71.20
59572;DHT22;59406;45.602;11.904;2022-08-14T01:33:40;19.70;71.30
59572;DHT22;59406;45.602;11.904;2022-08-14T01:36:10;19.70;71.20
59572;DHT22;59406;45.602;11.904;2022-08-14T01:38:38;19.80;71.20
59572;DHT22;59406;45.602;11.904;2022-08-14T01:41:10;19.80;71.40
59572;DHT22;59406;45.602;11.904;2022-08-14T01:43:56;19.80;71.90
59572;DHT22;59406;45.602;11.904;2022-08-14T01:46:29;19.80;72.50
59572;DHT22;59406;45.602;11.904;2022-08-14T01:48:57;19.80;72.00
59572;DHT22;59406;45.602;11.904;2022-08-14T01:51:24;19.70;71.80
59572;DHT22;59406;45.602;11.904;2022-08-14T01:53:53;19.60;72.00
59572;DHT22;59406;45.602;11.904;2022-08-14T01:56:25;19.60;72.00
59572;DHT22;59406;45.602;11.904;2022-08-14T01:59:02;19.60;71.90
59572;DHT22;59406;45.602;11.904;2022-08-14T02:01:28;19.60;71.90
59572;DHT22;59406;45.602;11.904;2022-08-14T02:03:54;19.60;71.80
59572;DHT22;59406;45.602;11.904;2022-08-14T02:06:20;19.50;72.20
59572;DHT22;59406;45.602;11.904;2022-08-14T02:08:47;19.50;72.40
59572;DHT22;59406;45.602;11.904;2022-08-14T02:11:13;19.40;72.00
59572;DHT22;59406;45.602;11.904;2022-08-14T02:13:45;19.50;72.00
59572;DHT22;59406;45.602;11.904;2022-08-14T02:16:13;19.50;72.10
59572;DHT22;59406;45.602;11.904;2022-08-14T02:18:42;19.50;72.00
59572;DHT22;59406;45.602;11.904;2022-08-14T02:21:09;19.40;72.40
59572;DHT22;59406;45.602;11.904;2022-08-14T02:23:38;19.30;72.50
59572;DHT22;59406;45.602;11.904;2022-08-14T02:26:15;19.30;72.50
59572;DHT22;59406;45.602;11.904;2022-08-14T02:28:41;19.30;73.10
59572;DHT22;59406;45.602;11.904;2022-08-14T02:31:07;19.20;72.80
59572;DHT22;59406;45.602;11.904;2022-08-14T02:33:34;19.30;72.40
59572;DHT22;59406;45.602;11.904;2022-08-14T02:36:01;19.30;72.10
59572;DHT22;59406;45.602;11.904;2022-08-14T02:38:29;19.30;72.40
59572;DHT22;59406;45.602;11.904;2022-08-14T02:40:58;19.20;73.10
59572;DHT22;59406;45.602;11.904;2022-08-14T02:43:26;19.20;73.10
59572;DHT22;59406;45.602;11.904;2022-08-14T02:45:53;18.90;73.70
59572;DHT22;59406;45.602;11.904;2022-08-14T02:48:19;18.80;74.10
59572;DHT22;59406;45.602;11.904;2022-08-14T02:50:45;18.70;74.20
59572;DHT22;59406;45.602;11.904;2022-08-14T02:53:11;18.50;74.60
59572;DHT22;59406;45.602;11.904;2022-08-14T02:55:37;18.50;74.40
59572;DHT22;59406;45.602;11.904;2022-08-14T02:58:06;18.50;74.20
59572;DHT22;59406;45.602;11.904;2022-08-14T03:00:33;18.40;74.30
59572;DHT22;59406;45.602;11.904;2022-08-14T03:03:01;18.40;74.00
59572;DHT22;59406;45.602;11.904;2022-08-14T03:05:27;18.40;74.40
59572;DHT22;59406;45.602;11.904;2022-08-14T03:08:11;18.60;74.00
59572;DHT22;59406;45.602;11.904;2022-08-14T03:10:38;18.60;74.50
59572;DHT22;59406;45.602;11.904;2022-08-14T03:13:05;18.60;74.20
59572;DHT22;59406;45.602;11.904;2022-08-14T03:15:32;18.60;74.40
59572;DHT22;59406;45.602;11.904;2022-08-14T03:18:10;18.50;74.80
59572;DHT22;59406;45.602;11.904;2022-08-14T03:20:36;18.70;75.00
59572;DHT22;59406;45.602;11.904;2022-08-14T03:23:02;18.60;74.80
59572;DHT22;59406;45.602;11.904;2022-08-14T03:25:29;18.70;74.10
59572;DHT22;59406;45.602;11.904;2022-08-14T03:28:04;18.80;74.20
59572;DHT22;59406;45.602;11.904;2022-08-14T03:30:32;18.60;74.00
59572;DHT22;59406;45.602;11.904;2022-08-14T03:32:58;18.70;73.80
59572;DHT22;59406;45.602;11.904;2022-08-14T03:35:26;18.60;74.20
59572;DHT22;59406;45.602;11.904;2022-08-14T03:37:52;18.60;74.10
59572;DHT22;59406;45.602;11.904;2022-08-14T03:40:20;18.50;74.50
59572;DHT22;59406;45.602;11.904;2022-08-14T03:42:48;18.50;74.40
59572;DHT22;59406;45.602;11.904;2022-08-14T03:45:14;18.40;74.90
59572;DHT22;59406;45.602;11.904;2022-08-14T03:47:41;18.40;74.80
59572;DHT22;59406;45.602;11.904;2022-08-14T03:50:08;18.30;74.90
59572;DHT22;59406;45.602;11.904;2022-08-14T03:52:37;18.30;74.80
59572;DHT22;59406;45.602;11.904;2022-08-14T03:55:09;18.20;75.30
59572;DHT22;59406;45.602;11.904;2022-08-14T03:57:38;18.10;76.10
59572;DHT22;59406;45.602;11.904;2022-08-14T04:00:08;18.00;76.80
59572;DHT22;59406;45.602;11.904;2022-08-14T04:02:39;17.80;76.80
59572;DHT22;59406;45.602;11.904;2022-08-14T04:05:09;17.80;76.90
59572;DHT22;59406;45.602;11.904;2022-08-14T04:07:36;17.80;77.20
59572;DHT22;59406;45.602;11.904;2022-08-14T04:10:05;17.80;76.90
59572;DHT22;59406;45.602;11.904;2022-08-14T04:12:31;17.80;77.20
59572;DHT22;59406;45.602;11.904;2022-08-14T04:14:58;17.60;76.70
59572;DHT22;59406;45.602;11.904;2022-08-14T04:17:25;17.80;77.40
59572;DHT22;59406;45.602;11.904;2022-08-14T04:19:54;17.70;77.20
59572;DHT22;59406;45.602;11.904;2022-08-14T04:22:20;17.60;77.60
59572;DHT22;59406;45.602;11.904;2022-08-14T04:24:46;17.60;77.30
59572;DHT22;59406;45.602;11.904;2022-08-14T04:27:14;17.60;77.60
59572;DHT22;59406;45.602;11.904;2022-08-14T04:29:41;17.60;77.40
59572;DHT22;59406;45.602;11.904;2022-08-14T04:32:09;17.70;77.50
59572;DHT22;59406;45.602;11.904;2022-08-14T04:34:36;17.70;77.20
59572;DHT22;59406;45.602;11.904;2022-08-14T04:37:07;17.80;77.10
59572;DHT22;59406;45.602;11.904;2022-08-14T04:39:53;17.90;77.00
59572;DHT22;59406;45.602;11.904;2022-08-14T04:42:39;18.00;76.70
59572;DHT22;59406;45.602;11.904;2022-08-14T04:45:25;18.30;75.50
59572;DHT22;59406;45.602;11.904;2022-08-14T04:48:15;18.20;76.30
59572;DHT22;59406;45.602;11.904;2022-08-14T04:50:51;18.40;76.10
59572;DHT22;59406;45.602;11.904;2022-08-14T04:53:25;18.60;76.70
59572;DHT22;59406;45.602;11.904;2022-08-14T04:55:51;18.60;76.50
59572;DHT22;59406;45.602;11.904;2022-08-14T04:58:26;18.70;75.70
59572;DHT22;59406;45.602;11.904;2022-08-14T05:00:54;18.90;76.20
59572;DHT22;59406;45.602;11.904;2022-08-14T05:03:23;19.00;75.80
59572;DHT22;59406;45.602;11.904;2022-08-14T05:05:50;19.20;76.10
59572;DHT22;59406;45.602;11.904;2022-08-14T05:08:17;19.20;75.80
59572;DHT22;59406;45.602;11.904;2022-08-14T05:10:46;19.40;75.50
59572;DHT22;59406;45.602;11.904;2022-08-14T05:13:15;19.50;74.90
59572;DHT22;59406;45.602;11.904;2022-08-14T05:15:42;19.70;74.50
59572;DHT22;59406;45.602;11.904;2022-08-14T05:18:15;19.90;74.50
59572;DHT22;59406;45.602;11.904;2022-08-14T05:20:46;20.10;74.20
59572;DHT22;59406;45.602;11.904;2022-08-14T05:23:13;20.30;74.10
59572;DHT22;59406;45.602;11.904;2022-08-14T05:25:41;20.50;74.10
59572;DHT22;59406;45.602;11.904;2022-08-14T05:28:13;20.50;74.40
59572;DHT22;59406;45.602;11.904;2022-08-14T05:30:45;20.70;73.70
59572;DHT22;59406;45.602;11.904;2022-08-14T05:33:15;20.80;73.60
59572;DHT22;59406;45.602;11.904;2022-08-14T05:35:47;21.00;72.20
59572;DHT22;59406;45.602;11.904;2022-08-14T05:38:16;21.30;71.90
59572;DHT22;59406;45.602;11.904;2022-08-14T05:40:46;21.50;71.10
59572;DHT22;59406;45.602;11.904;2022-08-14T05:43:13;21.70;70.90
59572;DHT22;59406;45.602;11.904;2022-08-14T05:45:39;21.70;70.60
59572;DHT22;59406;45.602;11.904;2022-08-14T05:48:07;22.00;70.50
59572;DHT22;59406;45.602;11.904;2022-08-14T05:50:34;22.20;71.60
59572;DHT22;59406;45.602;11.904;2022-08-14T05:53:00;22.50;70.80
59572;DHT22;59406;45.602;11.904;2022-08-14T05:55:26;22.70;70.50
59572;DHT22;59406;45.602;11.904;2022-08-14T05:57:54;23.00;70.10
59572;DHT22;59406;45.602;11.904;2022-08-14T06:00:28;23.10;69.40
59572;DHT22;59406;45.602;11.904;2022-08-14T06:02:55;23.40;68.90
59572;DHT22;59406;45.602;11.904;2022-08-14T06:05:22;23.70;69.40
59572;DHT22;59406;45.602;11.904;2022-08-14T06:07:48;24.00;69.00
59572;DHT22;59406;45.602;11.904;2022-08-14T06:10:14;24.20;68.70
59572;DHT22;59406;45.602;11.904;2022-08-14T06:12:40;24.50;68.20
59572;DHT22;59406;45.602;11.904;2022-08-14T06:15:08;24.60;68.00
59572;DHT22;59406;45.602;11.904;2022-08-14T06:17:44;24.70;67.70
59572;DHT22;59406;45.602;11.904;2022-08-14T06:20:11;24.90;67.40
59572;DHT22;59406;45.602;11.904;2022-08-14T06:22:40;25.20;67.20
59572;DHT22;59406;45.602;11.904;2022-08-14T06:25:08;25.40;66.60
59572;DHT22;59406;45.602;11.904;2022-08-14T06:27:36;25.70;64.40
59572;DHT22;59406;45.602;11.904;2022-08-14T06:30:04;25.90;64.10
59572;DHT22;59406;45.602;11.904;2022-08-14T06:32:30;26.10;63.40
59572;DHT22;59406;45.602;11.904;2022-08-14T06:34:56;26.40;60.50
59572;DHT22;59406;45.602;11.904;2022-08-14T06:37:22;26.50;60.10
59572;DHT22;59406;45.602;11.904;2022-08-14T06:39:48;26.60;59.40
59572;DHT22;59406;45.602;11.904;2022-08-14T06:42:14;27.00;59.30
59572;DHT22;59406;45.602;11.904;2022-08-14T06:44:40;27.20;58.40
59572;DHT22;59406;45.602;11.904;2022-08-14T06:47:06;27.10;57.40
59572;DHT22;59406;45.602;11.904;2022-08-14T06:49:33;27.00;57.20
59572;DHT22;59406;45.602;11.904;2022-08-14T06:51:59;27.20;57.10
59572;DHT22;59406;45.602;11.904;2022-08-14T06:54:25;27.10;56.90
59572;DHT22;59406;45.602;11.904;2022-08-14T06:56:51;27.50;55.90
59572;DHT22;59406;45.602;11.904;2022-08-14T06:59:17;27.70;56.80
59572;DHT22;59406;45.602;11.904;2022-08-14T07:01:43;27.90;55.30
59572;DHT22;59406;45.602;11.904;2022-08-14T07:04:27;28.20;53.50
59572;DHT22;59406;45.602;11.904;2022-08-14T07:07:11;28.40;53.50
59572;DHT22;59406;45.602;11.904;2022-08-14T07:09:37;28.80;52.30
59572;DHT22;59406;45.602;11.904;2022-08-14T07:12:03;29.00;50.60
59572;DHT22;59406;45.602;11.904;2022-08-14T07:14:29;29.20;49.10
59572;DHT22;59406;45.602;11.904;2022-08-14T07:16:55;29.30;48.00
59572;DHT22;59406;45.602;11.904;2022-08-14T07:19:22;29.50;47.50
59572;DHT22;59406;45.602;11.904;2022-08-14T07:21:48;29.50;47.00
59572;DHT22;59406;45.602;11.904;2022-08-14T07:24:14;29.70;47.00
59572;DHT22;59406;45.602;11.904;2022-08-14T07:26:40;29.60;46.70
59572;DHT22;59406;45.602;11.904;2022-08-14T07:29:06;29.90;46.70
59572;DHT22;59406;45.602;11.904;2022-08-14T07:31:32;29.70;45.10
59572;DHT22;59406;45.602;11.904;2022-08-14T07:33:58;29.60;45.80
59572;DHT22;59406;45.602;11.904;2022-08-14T07:36:23;29.60;46.10
59572;DHT22;59406;45.602;11.904;2022-08-14T07:38:50;29.70;46.00
59572;DHT22;59406;45.602;11.904;2022-08-14T07:41:16;29.60;46.50
59572;DHT22;59406;45.602;11.904;2022-08-14T07:43:42;29.50;47.00
59572;DHT22;59406;45.602;11.904;2022-08-14T07:46:08;29.50;46.90
59572;DHT22;59406;45.602;11.904;2022-08-14T07:48:40;29.70;45.10
59572;DHT22;59406;45.602;11.904;2022-08-14T07:51:08;30.10;45.80
59572;DHT22;59406;45.602;11.904;2022-08-14T07:53:38;29.90;44.50
59572;DHT22;59406;45.602;11.904;2022-08-14T07:56:05;30.10;45.40
59572;DHT22;59406;45.602;11.904;2022-08-14T07:58:31;30.50;44.10
59572;DHT22;59406;45.602;11.904;2022-08-14T08:00:58;30.50;44.50
59572;DHT22;59406;45.602;11.904;2022-08-14T08:03:24;31.20;43.50
59572;DHT22;59406;45.602;11.904;2022-08-14T08:05:53;31.70;42.90
59572;DHT22;59406;45.602;11.904;2022-08-14T08:08:19;32.20;41.10
59572;DHT22;59406;45.602;11.904;2022-08-14T08:10:47;32.90;40.40
59572;DHT22;59406;45.602;11.904;2022-08-14T08:13:15;33.00;39.10
59572;DHT22;59406;45.602;11.904;2022-08-14T08:18:11;33.10;38.30
59572;DHT22;59406;45.602;11.904;2022-08-14T08:20:41;33.10;38.50
59572;DHT22;59406;45.602;11.904;2022-08-14T08:23:07;33.10;37.60
59572;DHT22;59406;45.602;11.904;2022-08-14T08:25:39;33.60;37.40
59572;DHT22;59406;45.602;11.904;2022-08-14T08:30:40;34.10;34.40
59572;DHT22;59406;45.602;11.904;2022-08-14T08:33:07;34.10;32.90
59572;DHT22;59406;45.602;11.904;2022-08-14T08:35:36;34.30;32.90
59572;DHT22;59406;45.602;11.904;2022-08-14T08:38:06;34.70;32.20
59572;DHT22;59406;45.602;11.904;2022-08-14T08:40:38;35.10;30.60
59572;DHT22;59406;45.602;11.904;2022-08-14T08:43:07;35.30;31.30
59572;DHT22;59406;45.602;11.904;2022-08-14T08:45:35;35.60;29.20
59572;DHT22;59406;45.602;11.904;2022-08-14T08:48:02;35.80;29.10
59572;DHT22;59406;45.602;11.904;2022-08-14T08:50:35;35.30;29.50
59572;DHT22;59406;45.602;11.904;2022-08-14T08:53:08;36.00;28.90
59572;DHT22;59406;45.602;11.904;2022-08-14T08:55:37;37.00;27.20
59572;DHT22;59406;45.602;11.904;2022-08-14T08:58:09;37.20;28.00
59572;DHT22;59406;45.602;11.904;2022-08-14T09:00:37;37.50;26.40
59572;DHT22;59406;45.602;11.904;2022-08-14T09:03:06;36.60;27.40
59572;DHT22;59406;45.602;11.904;2022-08-14T09:05:35;37.20;27.20
59572;DHT22;59406;45.602;11.904;2022-08-14T09:08:24;37.20;26.90
59572;DHT22;59406;45.602;11.904;2022-08-14T09:10:52;37.20;26.50
59572;DHT22;59406;45.602;11.904;2022-08-14T09:13:20;37.00;26.80
59572;DHT22;59406;45.602;11.904;2022-08-14T09:15:48;37.00;26.50
59572;DHT22;59406;45.602;11.904;2022-08-14T09:18:16;36.00;26.40
59572;DHT22;59406;45.602;11.904;2022-08-14T09:20:48;37.10;26.00
59572;DHT22;59406;45.602;11.904;2022-08-14T09:23:14;35.90;26.60
59572;DHT22;59406;45.602;11.904;2022-08-14T09:25:43;35.90;26.40
59572;DHT22;59406;45.602;11.904;2022-08-14T09:28:10;36.20;26.40
59572;DHT22;59406;45.602;11.904;2022-08-14T09:30:40;36.90;25.90
59572;DHT22;59406;45.602;11.904;2022-08-14T09:33:29;37.50;24.60
59572;DHT22;59406;45.602;11.904;2022-08-14T09:47:10;38.80;21.20
59572;DHT22;59406;45.602;11.904;2022-08-14T09:49:38;39.00;21.10
59572;DHT22;59406;45.602;11.904;2022-08-14T09:52:12;39.30;21.00
59572;DHT22;59406;45.602;11.904;2022-08-14T09:54:42;39.40;20.50
59572;DHT22;59406;45.602;11.904;2022-08-14T09:57:10;38.80;21.20
59572;DHT22;59406;45.602;11.904;2022-08-14T09:59:47;38.90;20.80
59572;DHT22;59406;45.602;11.904;2022-08-14T10:02:19;39.70;19.80
59572;DHT22;59406;45.602;11.904;2022-08-14T10:04:58;40.20;18.90
59572;DHT22;59406;45.602;11.904;2022-08-14T10:07:33;40.20;19.40
59572;DHT22;59406;45.602;11.904;2022-08-14T10:10:00;40.80;18.70
59572;DHT22;59406;45.602;11.904;2022-08-14T10:12:46;41.30;18.30
59572;DHT22;59406;45.602;11.904;2022-08-14T10:15:21;41.80;18.50
59572;DHT22;59406;45.602;11.904;2022-08-14T10:17:48;0.20;0.20
59572;DHT22;59406;45.602;11.904;2022-08-14T10:20:15;0.20;0.20
59572;DHT22;59406;45.602;11.904;2022-08-14T10:22:45;42.00;17.10
59572;DHT22;59406;45.602;11.904;2022-08-14T10:25:13;0.20;0.20
59572;DHT22;59406;45.602;11.904;2022-08-14T10:27:40;41.50;16.90
59572;DHT22;59406;45.602;11.904;2022-08-14T10:30:17;40.60;17.20
59572;DHT22;59406;45.602;11.904;2022-08-14T10:32:46;40.60;17.40
59572;DHT22;59406;45.602;11.904;2022-08-14T10:35:14;41.20;17.30
59572;DHT22;59406;45.602;11.904;2022-08-14T10:37:51;42.10;16.90
59572;DHT22;59406;45.602;11.904;2022-08-14T10:40:29;41.60;15.80
59572;DHT22;59406;45.602;11.904;2022-08-14T10:42:55;41.50;16.30
59572;DHT22;59406;45.602;11.904;2022-08-14T10:45:39;41.80;16.10
59572;DHT22;59406;45.602;11.904;2022-08-14T10:48:13;41.60;15.70
59572;DHT22;59406;45.602;11.904;2022-08-14T10:50:42;0.20;0.20
59572;DHT22;59406;45.602;11.904;2022-08-14T10:53:27;0.20;0.20
59572;DHT22;59406;45.602;11.904;2022-08-14T10:55:58;0.20;0.20
59572;DHT22;59406;45.602;11.904;2022-08-14T10:58:29;0.20;0.20
59572;DHT22;59406;45.602;11.904;2022-08-14T11:00:58;0.20;0.20
59572;DHT22;59406;45.602;11.904;2022-08-14T11:03:38;0.20;0.20
59572;DHT22;59406;45.602;11.904;2022-08-14T11:06:15;0.20;0.20
59572;DHT22;59406;45.602;11.904;2022-08-14T11:08:45;0.20;0.20
59572;DHT22;59406;45.602;11.904;2022-08-14T11:11:11;0.20;0.20
59572;DHT22;59406;45.602;11.904;2022-08-14T11:13:43;0.20;0.20
59572;DHT22;59406;45.602;11.904;2022-08-14T11:16:12;0.20;0.20
59572;DHT22;59406;45.602;11.904;2022-08-14T11:18:45;0.20;0.20
59572;DHT22;59406;45.602;11.904;2022-08-14T11:21:15;0.20;0.20
59572;DHT22;59406;45.602;11.904;2022-08-14T11:23:44;0.20;0.20
59572;DHT22;59406;45.602;11.904;2022-08-14T11:26:12;0.20;0.20
59572;DHT22;59406;45.602;11.904;2022-08-14T11:28:41;0.20;0.20
59572;DHT22;59406;45.602;11.904;2022-08-14T11:31:11;0.20;0.20
59572;DHT22;59406;45.602;11.904;2022-08-14T11:33:41;0.20;0.20
59572;DHT22;59406;45.602;11.904;2022-08-14T11:36:09;0.20;0.20
59572;DHT22;59406;45.602;11.904;2022-08-14T11:38:40;0.20;0.20
59572;DHT22;59406;45.602;11.904;2022-08-14T11:41:08;0.20;0.20
59572;DHT22;59406;45.602;11.904;2022-08-14T11:43:40;0.20;0.20
59572;DHT22;59406;45.602;11.904;2022-08-14T11:46:07;0.20;0.20
59572;DHT22;59406;45.602;11.904;2022-08-14T11:51:21;0.20;0.20
59572;DHT22;59406;45.602;11.904;2022-08-14T11:53:52;0.20;0.20
59572;DHT22;59406;45.602;11.904;2022-08-14T11:56:19;0.20;0.20
59572;DHT22;59406;45.602;11.904;2022-08-14T11:58:52;0.20;0.20
59572;DHT22;59406;45.602;11.904;2022-08-14T12:01:26;0.20;0.20
59572;DHT22;59406;45.602;11.904;2022-08-14T12:03:53;0.20;0.20
59572;DHT22;59406;45.602;11.904;2022-08-14T12:06:24;0.20;0.20
59572;DHT22;59406;45.602;11.904;2022-08-14T12:08:51;0.20;0.20
59572;DHT22;59406;45.602;11.904;2022-08-14T12:11:20;0.20;0.20
59572;DHT22;59406;45.602;11.904;2022-08-14T12:13:47;0.20;0.20
59572;DHT22;59406;45.602;11.904;2022-08-14T12:16:14;0.20;0.20
59572;DHT22;59406;45.602;11.904;2022-08-14T12:18:43;0.20;0.20
59572;DHT22;59406;45.602;11.904;2022-08-14T12:21:23;0.20;0.20
59572;DHT22;59406;45.602;11.904;2022-08-14T12:24:08;0.20;0.20
59572;DHT22;59406;45.602;11.904;2022-08-14T12:26:34;0.20;0.20
59572;DHT22;59406;45.602;11.904;2022-08-14T12:29:08;0.20;0.20
59572;DHT22;59406;45.602;11.904;2022-08-14T12:31:36;0.20;0.20
59572;DHT22;59406;45.602;11.904;2022-08-14T12:34:05;0.20;0.20
59572;DHT22;59406;45.602;11.904;2022-08-14T12:36:31;0.20;0.20
59572;DHT22;59406;45.602;11.904;2022-08-14T12:38:59;0.20;0.20
59572;DHT22;59406;45.602;11.904;2022-08-14T12:41:29;0.20;0.20
59572;DHT22;59406;45.602;11.904;2022-08-14T12:44:04;0.20;0.20
59572;DHT22;59406;45.602;11.904;2022-08-14T12:49:10;0.20;0.20
59572;DHT22;59406;45.602;11.904;2022-08-14T12:51:38;0.20;0.20
59572;DHT22;59406;45.602;11.904;2022-08-14T12:54:16;0.20;0.20
59572;DHT22;59406;45.602;11.904;2022-08-14T12:56:43;0.20;0.20
59572;DHT22;59406;45.602;11.904;2022-08-14T12:59:11;0.20;0.20
59572;DHT22;59406;45.602;11.904;2022-08-14T13:01:38;0.20;0.20
59572;DHT22;59406;45.602;11.904;2022-08-14T13:04:12;0.20;0.20
59572;DHT22;59406;45.602;11.904;2022-08-14T13:06:43;0.20;0.20
59572;DHT22;59406;45.602;11.904;2022-08-14T13:09:13;0.20;0.20
59572;DHT22;59406;45.602;11.904;2022-08-14T13:11:44;0.20;0.20
59572;DHT22;59406;45.602;11.904;2022-08-14T13:14:13;0.20;0.20
59572;DHT22;59406;45.602;11.904;2022-08-14T13:16:42;0.20;0.20
59572;DHT22;59406;45.602;11.904;2022-08-14T13:19:12;0.20;0.20
59572;DHT22;59406;45.602;11.904;2022-08-14T13:21:42;0.20;0.20
59572;DHT22;59406;45.602;11.904;2022-08-14T13:24:08;0.20;0.20
59572;DHT22;59406;45.602;11.904;2022-08-14T13:26:45;0.20;0.20
59572;DHT22;59406;45.602;11.904;2022-08-14T13:29:14;0.20;0.20
59572;DHT22;59406;45.602;11.904;2022-08-14T13:31:43;0.20;0.20
59572;DHT22;59406;45.602;11.904;2022-08-14T13:34:12;0.20;0.20
59572;DHT22;59406;45.602;11.904;2022-08-14T13:36:38;0.20;0.20
59572;DHT22;59406;45.602;11.904;2022-08-14T13:39:06;0.20;0.20
59572;DHT22;59406;45.602;11.904;2022-08-14T13:41:33;0.20;0.20
59572;DHT22;59406;45.602;11.904;2022-08-14T13:44:00;0.20;0.20
59572;DHT22;59406;45.602;11.904;2022-08-14T13:46:26;0.20;0.20
59572;DHT22;59406;45.602;11.904;2022-08-14T13:48:52;0.20;0.20
59572;DHT22;59406;45.602;11.904;2022-08-14T13:51:18;0.20;0.20
59572;DHT22;59406;45.602;11.904;2022-08-14T13:53:48;0.20;0.20
59572;DHT22;59406;45.602;11.904;2022-08-14T13:56:15;0.20;0.20
59572;DHT22;59406;45.602;11.904;2022-08-14T13:58:42;0.20;0.20
59572;DHT22;59406;45.602;11.904;2022-08-14T14:01:14;0.20;0.20
59572;DHT22;59406;45.602;11.904;2022-08-14T14:03:42;0.20;0.20
59572;DHT22;59406;45.602;11.904;2022-08-14T14:06:13;0.20;0.20
59572;DHT22;59406;45.602;11.904;2022-08-14T14:08:47;0.20;0.20
59572;DHT22;59406;45.602;11.904;2022-08-14T14:11:16;0.20;0.20
59572;DHT22;59406;45.602;11.904;2022-08-14T14:13:47;0.20;0.20
59572;DHT22;59406;45.602;11.904;2022-08-14T14:16:14;0.20;0.20
59572;DHT22;59406;45.602;11.904;2022-08-14T14:18:49;0.20;0.20
59572;DHT22;59406;45.602;11.904;2022-08-14T14:21:22;0.20;0.20
59572;DHT22;59406;45.602;11.904;2022-08-14T14:23:49;0.20;0.20
59572;DHT22;59406;45.602;11.904;2022-08-14T14:26:18;0.20;0.20
59572;DHT22;59406;45.602;11.904;2022-08-14T14:28:49;0.20;0.20
59572;DHT22;59406;45.602;11.904;2022-08-14T14:31:25;0.20;0.20
59572;DHT22;59406;45.602;11.904;2022-08-14T14:33:58;0.20;0.20
59572;DHT22;59406;45.602;11.904;2022-08-14T14:36:26;0.20;0.20
59572;DHT22;59406;45.602;11.904;2022-08-14T14:38:58;0.20;0.20
59572;DHT22;59406;45.602;11.904;2022-08-14T14:41:28;0.20;0.20
59572;DHT22;59406;45.602;11.904;2022-08-14T14:43:55;0.20;0.20
59572;DHT22;59406;45.602;11.904;2022-08-14T14:46:24;0.20;0.20
59572;DHT22;59406;45.602;11.904;2022-08-14T14:48:51;0.20;0.20
59572;DHT22;59406;45.602;11.904;2022-08-14T14:51:18;0.20;0.20
59572;DHT22;59406;45.602;11.904;2022-08-14T14:53:46;0.20;0.20
59572;DHT22;59406;45.602;11.904;2022-08-14T14:56:12;0.20;0.20
59572;DHT22;59406;45.602;11.904;2022-08-14T14:58:40;0.20;0.20
59572;DHT22;59406;45.602;11.904;2022-08-14T15:01:08;0.20;0.20
59572;DHT22;59406;45.602;11.904;2022-08-14T15:03:39;0.20;0.20
59572;DHT22;59406;45.602;11.904;2022-08-14T15:06:06;0.20;0.20
59572;DHT22;59406;45.602;11.904;2022-08-14T15:08:32;0.20;0.20
59572;DHT22;59406;45.602;11.904;2022-08-14T15:10:59;0.20;0.20
59572;DHT22;59406;45.602;11.904;2022-08-14T15:13:26;0.20;0.20
59572;DHT22;59406;45.602;11.904;2022-08-14T15:15:53;0.20;0.20
59572;DHT22;59406;45.602;11.904;2022-08-14T15:18:20;0.20;0.20
59572;DHT22;59406;45.602;11.904;2022-08-14T15:20:47;0.20;0.20
59572;DHT22;59406;45.602;11.904;2022-08-14T15:23:13;0.20;0.20
59572;DHT22;59406;45.602;11.904;2022-08-14T15:25:41;0.20;0.20
59572;DHT22;59406;45.602;11.904;2022-08-14T15:28:09;0.20;0.20
59572;DHT22;59406;45.602;11.904;2022-08-14T15:30:45;0.20;0.20
59572;DHT22;59406;45.602;11.904;2022-08-14T15:33:12;0.20;0.20
59572;DHT22;59406;45.602;11.904;2022-08-14T15:35:38;0.20;0.20
59572;DHT22;59406;45.602;11.904;2022-08-14T15:38:05;0.20;0.20
59572;DHT22;59406;45.602;11.904;2022-08-14T15:40:37;0.20;0.20
59572;DHT22;59406;45.602;11.904;2022-08-14T15:43:08;0.20;0.20
59572;DHT22;59406;45.602;11.904;2022-08-14T15:45:37;0.20;0.20
59572;DHT22;59406;45.602;11.904;2022-08-14T15:48:08;0.20;0.20
59572;DHT22;59406;45.602;11.904;2022-08-14T15:50:34;0.20;0.20
59572;DHT22;59406;45.602;11.904;2022-08-14T15:53:00;0.20;0.20
59572;DHT22;59406;45.602;11.904;2022-08-14T15:55:26;39.90;10.20
59572;DHT22;59406;45.602;11.904;2022-08-14T15:57:55;39.50;10.40
59572;DHT22;59406;45.602;11.904;2022-08-14T16:00:22;39.30;10.90